createdAt,value
2022-07-30T00:01:14.332Z,41.32
2022-07-30T00:03:41.361Z,41.35
2022-07-30T00:06:08.183Z,41.10
2022-07-30T00:08:34.969Z,41.26
2022-07-30T00:11:01.688Z,41.23
2022-07-30T00:13:28.620Z,41.22
2022-07-30T00:15:55.282Z,41.08
2022-07-30T00:18:22.437Z,41.30
2022-07-30T00:20:49.240Z,41.10
2022-07-30T00:23:16.052Z,41.37
2022-07-30T00:25:42.747Z,41.11
2022-07-30T00:28:09.511Z,41.10
2022-07-30T00:30:36.481Z,41.14
2022-07-30T00:33:03.242Z,41.07
2022-07-30T00:35:30.076Z,40.97
2022-07-30T00:37:56.754Z,41.16
2022-07-30T00:40:23.748Z,41.04
2022-07-30T00:42:50.461Z,41.06
2022-07-30T00:45:18.817Z,41.06
2022-07-30T00:47:46.017Z,41.02
2022-07-30T00:50:13.975Z,40.97
2022-07-30T00:52:41.533Z,41.03
2022-07-30T00:55:10.489Z,41.07
2022-07-30T00:57:37.286Z,40.97
2022-07-30T01:00:08.690Z,40.94
2022-07-30T01:02:35.658Z,41.10
2022-07-30T01:05:02.462Z,41.00
2022-07-30T01:07:29.170Z,40.98
2022-07-30T01:09:56.079Z,40.98
2022-07-30T01:12:25.194Z,40.94
2022-07-30T01:14:52.860Z,40.74
2022-07-30T01:17:19.569Z,41.03
2022-07-30T01:19:52.464Z,40.89
2022-07-30T01:22:30.905Z,40.94
2022-07-30T01:25:28.869Z,40.82
2022-07-30T01:27:59.999Z,41.03
2022-07-30T01:30:29.605Z,41.04
2022-07-30T01:32:57.988Z,41.00
2022-07-30T01:35:26.359Z,40.97
2022-07-30T01:37:54.938Z,41.00
2022-07-30T01:40:22.989Z,41.10
2022-07-30T01:42:57.333Z,40.84
2022-07-30T01:45:25.642Z,40.98
2022-07-30T01:47:57.007Z,40.98
2022-07-30T01:50:23.910Z,41.00
2022-07-30T01:52:52.967Z,40.96
2022-07-30T01:55:25.391Z,40.99
2022-07-30T01:57:52.542Z,40.97
2022-07-30T02:00:19.267Z,41.02
2022-07-30T02:02:46.586Z,40.89
2022-07-30T02:05:13.416Z,40.98
2022-07-30T02:07:50.754Z,41.01
2022-07-30T02:10:35.576Z,41.20
2022-07-30T02:13:05.316Z,41.27
2022-07-30T02:15:46.666Z,41.05
2022-07-30T02:18:33.622Z,41.04
2022-07-30T02:21:11.682Z,40.94
2022-07-30T02:23:43.535Z,41.32
2022-07-30T02:26:16.247Z,41.10
2022-07-30T02:28:44.327Z,41.19
2022-07-30T02:31:17.694Z,41.35
2022-07-30T02:33:48.740Z,41.31
2022-07-30T02:36:17.757Z,41.29
2022-07-30T02:38:46.327Z,41.39
2022-07-30T02:41:13.577Z,41.21
2022-07-30T02:43:41.125Z,41.09
2022-07-30T02:46:08.144Z,41.20
2022-07-30T02:48:36.773Z,41.27
2022-07-30T02:51:04.489Z,41.25
2022-07-30T02:53:31.571Z,41.21
2022-07-30T02:56:00.457Z,41.06
2022-07-30T02:58:28.426Z,41.30
2022-07-30T03:00:56.057Z,41.14
2022-07-30T03:03:29.085Z,41.36
2022-07-30T03:05:56.596Z,41.18
2022-07-30T03:08:25.914Z,41.31
2022-07-30T03:10:54.313Z,41.15
2022-07-30T03:13:21.242Z,41.18
2022-07-30T03:15:50.306Z,41.15
2022-07-30T03:18:18.298Z,41.22
2022-07-30T03:20:46.882Z,41.22
2022-07-30T03:23:15.690Z,41.23
2022-07-30T03:25:43.135Z,41.21
2022-07-30T03:28:11.013Z,41.25
2022-07-30T03:30:37.871Z,41.13
2022-07-30T03:33:05.699Z,41.24
2022-07-30T03:35:32.665Z,41.17
2022-07-30T03:37:59.812Z,41.19
2022-07-30T03:40:26.654Z,41.34
2022-07-30T03:42:53.375Z,41.00
2022-07-30T03:45:20.339Z,41.03
2022-07-30T03:47:47.849Z,41.28
2022-07-30T03:50:15.608Z,41.07
2022-07-30T03:52:42.636Z,41.09
2022-07-30T03:55:11.140Z,41.20
2022-07-30T03:57:38.007Z,41.22
2022-07-30T04:00:08.392Z,41.21
2022-07-30T04:02:42.714Z,41.27
2022-07-30T04:05:09.930Z,40.86
2022-07-30T04:07:41.454Z,41.26
2022-07-30T04:10:12.838Z,41.23
2022-07-30T04:12:39.567Z,41.12
2022-07-30T04:16:16.723Z,41.05
2022-07-30T04:17:57.759Z,41.17
2022-07-30T04:20:28.272Z,41.12
2022-07-30T04:22:55.419Z,41.01
2022-07-30T04:25:24.375Z,41.14
2022-07-30T04:28:03.309Z,41.33
2022-07-30T04:30:30.776Z,41.15
2022-07-30T04:32:57.515Z,41.17
2022-07-30T04:35:51.697Z,41.07
2022-07-30T04:38:18.693Z,41.26
2022-07-30T04:40:46.023Z,41.17
2022-07-30T04:43:12.733Z,41.02
2022-07-30T04:45:40.483Z,40.90
2022-07-30T04:48:07.689Z,41.10
2022-07-30T04:50:36.785Z,41.04
2022-07-30T04:53:03.803Z,40.95
2022-07-30T04:55:31.748Z,41.05
2022-07-30T04:57:59.088Z,41.26
2022-07-30T05:00:25.852Z,41.10
2022-07-30T05:02:53.746Z,41.06
2022-07-30T05:05:20.718Z,41.15
2022-07-30T05:07:47.818Z,41.10
2022-07-30T05:10:14.539Z,41.07
2022-07-30T05:12:41.663Z,41.02
2022-07-30T05:15:09.839Z,41.08
2022-07-30T05:17:37.452Z,40.94
2022-07-30T05:20:04.971Z,41.32
2022-07-30T05:22:31.657Z,41.03
2022-07-30T05:24:58.393Z,41.03
2022-07-30T05:27:25.075Z,41.05
2022-07-30T05:29:51.859Z,41.00
2022-07-30T05:32:25.480Z,41.08
2022-07-30T05:34:53.689Z,41.16
2022-07-30T05:37:20.328Z,41.20
2022-07-30T05:39:58.920Z,41.21
2022-07-30T05:42:30.226Z,41.14
2022-07-30T05:44:57.171Z,41.28
2022-07-30T05:47:23.847Z,41.23
2022-07-30T05:49:50.586Z,41.41
2022-07-30T05:52:17.294Z,41.32
2022-07-30T05:54:44.424Z,41.20
2022-07-30T05:57:11.202Z,41.27
2022-07-30T05:59:37.912Z,41.07
2022-07-30T06:02:06.855Z,41.39
2022-07-30T06:04:35.625Z,41.37
2022-07-30T06:07:03.448Z,41.25
2022-07-30T06:09:36.528Z,41.43
2022-07-30T06:12:04.992Z,41.37
2022-07-30T06:14:32.386Z,41.64
2022-07-30T06:16:59.524Z,41.44
2022-07-30T06:19:26.541Z,41.52
2022-07-30T06:22:05.878Z,41.53
2022-07-30T06:24:33.943Z,41.79
2022-07-30T06:27:00.989Z,42.11
2022-07-30T06:29:27.902Z,42.11
2022-07-30T06:31:54.602Z,42.25
2022-07-30T06:34:21.387Z,42.23
2022-07-30T06:36:48.548Z,42.54
2022-07-30T06:39:15.279Z,42.69
2022-07-30T06:42:01.973Z,42.77
2022-07-30T06:44:28.812Z,42.66
2022-07-30T06:46:55.666Z,43.11
2022-07-30T06:49:23.052Z,43.28
2022-07-30T06:51:49.819Z,43.75
2022-07-30T06:54:16.534Z,43.43
2022-07-30T06:56:43.494Z,43.73
2022-07-30T06:59:10.547Z,43.63
2022-07-30T07:01:37.297Z,43.78
2022-07-30T07:04:04.473Z,43.92
2022-07-30T07:06:32.260Z,43.71
2022-07-30T07:08:59.168Z,44.04
2022-07-30T07:11:26.127Z,44.04
2022-07-30T07:13:52.805Z,44.15
2022-07-30T07:16:25.445Z,44.43
2022-07-30T07:18:53.334Z,44.59
2022-07-30T07:21:20.564Z,44.55
2022-07-30T07:23:48.936Z,44.88
2022-07-30T07:26:16.832Z,44.78
2022-07-30T07:28:43.625Z,44.71
2022-07-30T07:31:11.428Z,44.65
2022-07-30T07:33:58.049Z,45.12
2022-07-30T07:36:24.722Z,44.76
2022-07-30T07:38:51.435Z,44.76
2022-07-30T07:41:18.112Z,44.71
2022-07-30T07:43:44.791Z,44.66
2022-07-30T07:46:12.465Z,44.34
2022-07-30T07:48:39.696Z,44.54
2022-07-30T07:51:09.705Z,44.34
2022-07-30T07:53:36.523Z,44.61
2022-07-30T07:56:03.639Z,44.47
2022-07-30T07:58:31.090Z,44.50
2022-07-30T08:00:58.464Z,44.33
2022-07-30T08:03:25.158Z,44.34
2022-07-30T08:05:56.795Z,44.43
2022-07-30T08:08:32.769Z,44.61
2022-07-30T08:11:02.555Z,44.54
2022-07-30T08:13:48.661Z,44.70
2022-07-30T08:16:15.937Z,44.34
2022-07-30T08:18:42.632Z,44.00
2022-07-30T08:21:09.453Z,43.97
2022-07-30T08:23:39.670Z,44.18
2022-07-30T08:26:08.950Z,44.31
2022-07-30T08:28:36.851Z,44.14
2022-07-30T08:31:03.792Z,44.27
2022-07-30T08:33:30.629Z,44.03
2022-07-30T08:35:59.427Z,43.86
2022-07-30T08:38:35.690Z,43.88
2022-07-30T08:41:02.376Z,43.59
2022-07-30T08:43:29.412Z,43.70
2022-07-30T08:45:56.679Z,43.31
2022-07-30T08:48:23.833Z,43.09
2022-07-30T08:50:51.118Z,43.14
2022-07-30T08:53:17.804Z,43.11
2022-07-30T08:55:45.084Z,43.11
2022-07-30T08:58:34.504Z,42.66
2022-07-30T09:01:01.807Z,42.88
2022-07-30T09:03:28.490Z,42.54
2022-07-30T09:05:55.188Z,42.75
2022-07-30T09:08:21.870Z,42.74
2022-07-30T09:10:50.651Z,42.51
2022-07-30T09:13:29.945Z,42.46
2022-07-30T09:15:57.942Z,42.32
2022-07-30T09:18:36.046Z,42.30
2022-07-30T09:21:26.847Z,42.20
2022-07-30T09:24:10.330Z,42.11
2022-07-30T09:27:01.394Z,41.91
2022-07-30T09:29:32.169Z,42.47
2022-07-30T09:32:07.192Z,42.22
2022-07-30T09:34:36.991Z,41.88
2022-07-30T09:37:18.062Z,41.72
2022-07-30T09:39:58.779Z,41.88
2022-07-30T09:42:28.398Z,42.18
2022-07-30T09:45:07.223Z,42.11
2022-07-30T09:47:36.079Z,42.39
2022-07-30T09:50:07.843Z,42.28
2022-07-30T09:52:34.810Z,42.32
2022-07-30T09:55:01.651Z,42.44
2022-07-30T09:57:30.450Z,42.39
2022-07-30T10:00:00.019Z,42.24
2022-07-30T10:02:33.753Z,42.17
2022-07-30T10:05:15.357Z,42.08
2022-07-30T10:07:53.014Z,42.29
2022-07-30T10:10:25.864Z,42.27
2022-07-30T10:12:58.108Z,42.22
2022-07-30T10:15:25.820Z,42.19
2022-07-30T10:17:54.571Z,42.09
2022-07-30T10:20:21.607Z,42.25
2022-07-30T10:22:50.466Z,42.18
2022-07-30T10:25:23.251Z,42.01
2022-07-30T10:27:57.045Z,42.04
2022-07-30T10:30:27.901Z,41.88
2022-07-30T10:32:57.641Z,42.04
2022-07-30T10:35:34.941Z,41.88
2022-07-30T10:38:13.790Z,41.89
2022-07-30T10:40:48.109Z,41.97
2022-07-30T10:43:17.809Z,42.05
2022-07-30T10:46:05.043Z,42.06
2022-07-30T10:48:35.206Z,42.16
2022-07-30T10:51:01.949Z,42.29
2022-07-30T10:53:37.595Z,42.25
2022-07-30T10:56:11.294Z,41.97
2022-07-30T10:59:14.940Z,41.88
2022-07-30T11:02:08.574Z,42.30
2022-07-30T11:04:35.311Z,41.97
2022-07-30T11:07:24.230Z,42.12
2022-07-30T11:10:05.024Z,42.09
2022-07-30T11:12:45.480Z,41.93
2022-07-30T11:15:19.009Z,42.08
2022-07-30T11:18:12.220Z,42.16
2022-07-30T11:20:40.866Z,41.95
2022-07-30T11:23:14.176Z,41.96
2022-07-30T11:25:52.038Z,42.10
2022-07-30T11:28:37.427Z,42.02
2022-07-30T11:31:10.112Z,42.15
2022-07-30T11:33:37.807Z,42.07
2022-07-30T11:36:15.099Z,42.21
2022-07-30T11:39:05.389Z,41.93
2022-07-30T11:41:34.266Z,42.02
2022-07-30T11:44:30.049Z,42.31
2022-07-30T11:46:56.815Z,42.16
2022-07-30T11:49:23.561Z,42.31
2022-07-30T11:51:51.132Z,42.33
2022-07-30T11:54:18.588Z,42.24
2022-07-30T11:56:54.648Z,42.21
2022-07-30T11:59:21.585Z,42.26
2022-07-30T12:01:57.101Z,42.31
2022-07-30T12:04:24.712Z,42.39
2022-07-30T12:06:51.639Z,42.45
2022-07-30T12:09:29.234Z,42.44
2022-07-30T12:11:56.946Z,42.54
2022-07-30T12:14:23.715Z,44.81
2022-07-30T12:16:54.436Z,43.74
2022-07-30T12:19:21.222Z,43.50
2022-07-30T12:21:52.775Z,43.29
2022-07-30T12:24:25.277Z,43.19
2022-07-30T12:26:51.983Z,43.14
2022-07-30T12:29:18.795Z,43.25
2022-07-30T12:31:46.275Z,43.18
2022-07-30T12:34:27.371Z,43.08
2022-07-30T12:36:54.880Z,43.29
2022-07-30T12:39:23.960Z,43.43
2022-07-30T12:41:52.798Z,43.39
2022-07-30T12:44:41.361Z,43.02
2022-07-30T12:47:25.273Z,42.59
2022-07-30T12:49:56.479Z,42.61
2022-07-30T12:52:36.071Z,43.03
2022-07-30T12:55:07.155Z,43.20
2022-07-30T12:57:57.886Z,42.78
2022-07-30T13:00:28.028Z,42.89
2022-07-30T13:02:55.281Z,42.70
2022-07-30T13:05:42.585Z,42.16
2022-07-30T13:08:09.241Z,42.36
2022-07-30T13:10:35.988Z,42.42
2022-07-30T13:13:02.718Z,42.17
2022-07-30T13:15:29.549Z,42.09
2022-07-30T13:17:56.388Z,42.20
2022-07-30T13:20:23.327Z,41.81
2022-07-30T13:22:50.052Z,42.00
2022-07-30T13:25:16.813Z,41.94
2022-07-30T13:27:43.543Z,42.06
2022-07-30T13:30:10.937Z,41.92
2022-07-30T13:32:37.842Z,42.15
2022-07-30T13:35:05.318Z,42.29
2022-07-30T13:37:37.851Z,42.03
2022-07-30T13:40:06.589Z,42.16
2022-07-30T13:42:33.288Z,42.10
2022-07-30T13:44:59.965Z,42.14
2022-07-30T13:47:26.705Z,41.76
2022-07-30T13:49:53.490Z,41.70
2022-07-30T13:52:20.228Z,41.76
2022-07-30T13:54:46.997Z,41.69
2022-07-30T13:57:13.686Z,41.83
2022-07-30T13:59:40.391Z,41.58
2022-07-30T14:02:07.175Z,41.56
2022-07-30T14:04:34.216Z,41.29
2022-07-30T14:07:01.274Z,41.53
2022-07-30T14:09:28.398Z,41.44
2022-07-30T14:11:55.150Z,41.66
2022-07-30T14:14:22.699Z,41.70
2022-07-30T14:16:53.795Z,41.20
2022-07-30T14:19:24.196Z,41.19
2022-07-30T14:21:52.838Z,41.24
2022-07-30T14:24:20.145Z,41.16
2022-07-30T14:26:46.836Z,41.33
2022-07-30T14:29:13.676Z,41.09
2022-07-30T14:31:40.838Z,40.96
2022-07-30T14:34:07.624Z,41.22
2022-07-30T14:36:34.511Z,41.23
2022-07-30T14:39:04.985Z,41.03
2022-07-30T14:41:32.292Z,41.23
2022-07-30T14:43:59.010Z,41.21
2022-07-30T14:46:25.763Z,41.09
2022-07-30T14:48:52.552Z,41.21
2022-07-30T14:51:24.301Z,40.85
2022-07-30T14:53:53.271Z,40.80
2022-07-30T14:56:21.555Z,40.77
2022-07-30T14:58:48.227Z,40.79
2022-07-30T15:01:16.627Z,40.51
2022-07-30T15:03:44.733Z,40.38
2022-07-30T15:06:12.875Z,40.08
2022-07-30T15:08:39.865Z,39.91
2022-07-30T15:11:07.887Z,39.63
2022-07-30T15:13:36.343Z,39.44
2022-07-30T15:16:03.392Z,39.01
2022-07-30T15:18:30.136Z,38.91
2022-07-30T15:20:56.824Z,39.47
2022-07-30T15:23:23.496Z,39.12
2022-07-30T15:25:50.174Z,39.17
2022-07-30T15:28:17.089Z,39.64
2022-07-30T15:30:43.912Z,39.53
2022-07-30T15:33:10.854Z,39.44
2022-07-30T15:35:37.671Z,39.43
2022-07-30T15:38:04.414Z,39.56
2022-07-30T15:40:31.180Z,39.49
2022-07-30T15:42:57.996Z,39.47
2022-07-30T15:45:25.193Z,39.46
2022-07-30T15:47:51.985Z,39.71
2022-07-30T15:50:18.715Z,39.53
2022-07-30T15:52:45.411Z,39.38
2022-07-30T15:55:12.498Z,39.57
2022-07-30T15:57:39.265Z,39.97
2022-07-30T16:00:09.596Z,39.77
2022-07-30T16:02:37.024Z,39.71
2022-07-30T16:05:04.274Z,39.73
2022-07-30T16:07:31.151Z,39.85
2022-07-30T16:09:58.011Z,40.41
2022-07-30T16:12:24.813Z,40.58
2022-07-30T16:14:51.581Z,41.46
2022-07-30T16:17:18.404Z,41.09
2022-07-30T16:19:45.346Z,41.08
2022-07-30T16:22:14.869Z,40.57
2022-07-30T16:24:45.476Z,41.19
2022-07-30T16:27:13.921Z,40.90
2022-07-30T16:29:40.610Z,40.72
2022-07-30T16:32:07.343Z,41.37
2022-07-30T16:34:34.601Z,41.36
2022-07-30T16:37:04.226Z,41.08
2022-07-30T16:39:31.332Z,41.08
2022-07-30T16:41:58.045Z,40.85
2022-07-30T16:44:27.125Z,42.81
2022-07-30T16:46:53.874Z,41.65
2022-07-30T16:49:20.625Z,41.40
2022-07-30T16:51:47.435Z,41.20
2022-07-30T16:54:14.214Z,41.19
2022-07-30T16:56:40.970Z,40.95
2022-07-30T16:59:11.861Z,40.80
2022-07-30T17:01:40.490Z,40.87
2022-07-30T17:04:07.195Z,40.24
2022-07-30T17:06:34.082Z,40.40
2022-07-30T17:09:00.804Z,40.84
2022-07-30T17:11:47.309Z,40.74
2022-07-30T17:14:14.931Z,40.16
2022-07-30T17:16:41.619Z,39.75
2022-07-30T17:19:09.255Z,40.09
2022-07-30T17:21:36.608Z,39.99
2022-07-30T17:24:03.526Z,39.99
2022-07-30T17:26:32.877Z,40.41
2022-07-30T17:28:59.589Z,40.17
2022-07-30T17:31:27.319Z,40.22
2022-07-30T17:33:54.038Z,40.03
2022-07-30T17:36:21.299Z,39.96
2022-07-30T17:38:48.014Z,40.06
2022-07-30T17:41:14.770Z,40.10
2022-07-30T17:43:41.504Z,40.91
2022-07-30T17:46:08.176Z,40.96
2022-07-30T17:48:34.882Z,40.92
2022-07-30T17:51:02.056Z,40.53
2022-07-30T17:53:29.190Z,40.60
2022-07-30T17:55:57.631Z,40.99
2022-07-30T17:58:25.224Z,40.59
2022-07-30T18:00:52.065Z,40.78
2022-07-30T18:03:18.761Z,40.46
2022-07-30T18:05:45.463Z,40.48
2022-07-30T18:08:12.186Z,40.56
2022-07-30T18:10:38.981Z,40.49
2022-07-30T18:13:25.912Z,40.63
2022-07-30T18:15:54.101Z,40.87
2022-07-30T18:18:20.754Z,40.85
2022-07-30T18:20:48.386Z,40.64
2022-07-30T18:23:19.132Z,40.82
2022-07-30T18:25:51.867Z,40.94
2022-07-30T18:28:21.916Z,41.31
2022-07-30T18:30:48.632Z,41.23
2022-07-30T18:33:16.359Z,41.55
2022-07-30T18:35:43.778Z,41.71
2022-07-30T18:38:10.670Z,41.70
2022-07-30T18:40:37.341Z,41.71
2022-07-30T18:43:04.318Z,41.72
2022-07-30T18:45:35.234Z,41.56
2022-07-30T18:48:03.758Z,41.85
2022-07-30T18:50:30.803Z,42.06
2022-07-30T18:52:57.583Z,42.19
2022-07-30T18:55:24.427Z,42.11
2022-07-30T18:57:52.423Z,41.74
2022-07-30T19:00:34.149Z,41.86
2022-07-30T19:03:01.970Z,42.14
2022-07-30T19:05:28.827Z,42.11
2022-07-30T19:07:58.816Z,41.91
2022-07-30T19:10:26.624Z,42.13
2022-07-30T19:12:54.179Z,42.01
2022-07-30T19:15:20.976Z,42.05
2022-07-30T19:17:49.093Z,42.06
2022-07-30T19:20:15.810Z,41.86
2022-07-30T19:22:42.663Z,41.58
2022-07-30T19:25:10.643Z,41.67
2022-07-30T19:27:37.352Z,41.63
2022-07-30T19:30:05.153Z,41.58
2022-07-30T19:32:31.862Z,41.72
2022-07-30T19:34:58.524Z,42.00
2022-07-30T19:37:25.250Z,42.03
2022-07-30T19:40:05.457Z,42.04
2022-07-30T19:42:33.770Z,42.10
2022-07-30T19:45:01.302Z,42.31
2022-07-30T19:47:35.228Z,42.37
2022-07-30T19:50:06.817Z,42.55
2022-07-30T19:52:33.601Z,42.28
2022-07-30T19:55:02.873Z,42.44
2022-07-30T19:57:52.992Z,42.44
2022-07-30T20:00:24.846Z,42.44
2022-07-30T20:02:52.168Z,42.55
2022-07-30T20:05:19.050Z,42.62
2022-07-30T20:07:45.836Z,42.35
2022-07-30T20:10:13.268Z,42.43
2022-07-30T20:12:42.379Z,42.32
2022-07-30T20:15:16.084Z,42.62
2022-07-30T20:17:42.805Z,42.41
2022-07-30T20:20:10.451Z,42.45
2022-07-30T20:22:37.130Z,42.54
2022-07-30T20:25:06.407Z,42.70
2022-07-30T20:27:37.375Z,42.55
2022-07-30T20:30:25.270Z,42.71
2022-07-30T20:32:52.323Z,42.63
2022-07-30T20:35:21.569Z,42.50
2022-07-30T20:37:54.580Z,42.40
2022-07-30T20:40:23.150Z,42.53
2022-07-30T20:42:50.066Z,42.49
2022-07-30T20:45:16.774Z,42.60
2022-07-30T20:47:47.161Z,42.80
2022-07-30T20:50:14.888Z,42.54
2022-07-30T20:52:47.008Z,42.38
2022-07-30T20:55:19.263Z,42.39
2022-07-30T20:58:00.380Z,42.55
2022-07-30T21:00:36.932Z,42.38
2022-07-30T21:03:04.784Z,42.79
2022-07-30T21:05:31.856Z,42.61
2022-07-30T21:07:58.879Z,42.56
2022-07-30T21:10:25.776Z,42.55
2022-07-30T21:12:58.738Z,42.49
2022-07-30T21:15:32.374Z,42.47
2022-07-30T21:17:59.590Z,42.75
2022-07-30T21:20:29.761Z,42.58
2022-07-30T21:23:02.333Z,42.54
2022-07-30T21:25:32.361Z,42.51
2022-07-30T21:28:02.847Z,42.53
2022-07-30T21:30:31.004Z,42.44
2022-07-30T21:32:57.974Z,42.31
2022-07-30T21:35:25.094Z,42.62
2022-07-30T21:37:58.586Z,42.45
2022-07-30T21:40:25.389Z,42.63
2022-07-30T21:42:52.145Z,42.50
2022-07-30T21:45:19.699Z,42.69
2022-07-30T21:47:47.521Z,42.38
2022-07-30T21:50:15.957Z,42.58
2022-07-30T21:52:43.601Z,42.38
2022-07-30T21:55:13.294Z,42.38
2022-07-30T21:57:40.831Z,42.50
2022-07-30T22:00:21.939Z,42.46
2022-07-30T22:02:53.942Z,42.38
2022-07-30T22:05:21.671Z,42.52
2022-07-30T22:07:50.017Z,42.39
2022-07-30T22:13:03.873Z,42.65
2022-07-30T22:15:30.910Z,42.53
2022-07-30T22:18:00.975Z,42.56
2022-07-30T22:20:29.000Z,42.33
2022-07-30T22:23:00.235Z,42.27
2022-07-30T22:25:41.838Z,42.44
2022-07-30T22:28:12.894Z,42.21
2022-07-30T22:30:40.427Z,42.40
2022-07-30T22:33:08.653Z,42.25
2022-07-30T22:35:35.531Z,42.34
2022-07-30T22:38:03.735Z,42.21
2022-07-30T22:40:31.334Z,42.18
2022-07-30T22:42:58.044Z,42.28
2022-07-30T22:45:48.232Z,42.37
2022-07-30T22:48:11.803Z,42.37
2022-07-30T22:50:39.756Z,42.24
2022-07-30T22:53:23.448Z,42.35
2022-07-30T22:55:54.709Z,42.34
2022-07-30T22:58:22.050Z,42.31
2022-07-30T23:00:53.260Z,42.41
2022-07-30T23:03:19.963Z,42.33
2022-07-30T23:05:56.453Z,42.27
2022-07-30T23:08:29.486Z,42.41
2022-07-30T23:10:57.362Z,42.21
2022-07-30T23:12:31.671Z,42.57
2022-07-30T23:13:24.055Z,42.09
2022-07-30T23:15:50.788Z,42.22
2022-07-30T23:18:17.479Z,42.19
2022-07-30T23:20:44.544Z,42.22
2022-07-30T23:23:11.692Z,42.17
2022-07-30T23:25:39.342Z,42.07
2022-07-30T23:28:06.501Z,42.23
2022-07-30T23:30:34.478Z,42.36
2022-07-30T23:33:01.721Z,42.30
2022-07-30T23:35:28.517Z,42.21
2022-07-30T23:37:55.210Z,42.13
2022-07-30T23:40:22.557Z,42.37
2022-07-30T23:42:51.057Z,42.07
2022-07-30T23:45:18.331Z,42.09
2022-07-30T23:48:02.106Z,42.30
2022-07-30T23:50:32.942Z,42.23
2022-07-30T23:53:00.689Z,42.33
2022-07-30T23:55:27.453Z,42.28
2022-07-30T23:57:54.223Z,42.14
